Terminal Aerodrome Forecast
Issued by NWS

Home | Current Version | Previous Version | Text Only | Print | Product List | Glossary On
Versions: 1 2 3 4 5 6 7 8 9 10 11 12 13 14 15 16 17 18 19
000
FTUS41 KOKX 200500
TAFSWF
TAF
KSWF 200528Z 2006/2112 07008KT P6SM SCT250
     FM200900 VRB05KT P6SM SKC
     FM201300 09008KT P6SM SKC
     FM201600 12008KT P6SM SKC
     FM202200 16006KT P6SM SKC
     FM210100 VRB02KT P6SM SKC
      AMD NOT SKED=

USA.gov is the U.S. government's official web portal to all federal, state and local government web resources and services.